RCSS Airport Information

Runway Information
Runway 10 Length 8547 ft width 197 ft
Elevation 13 ft Threshold 0 ft Heading 92
Runway 28 Length 8547 ft Width 197 ft
Elevation 14 ft Threshold 0 ft Heading 272
Airport Frequencies
Type APP Name TAIPEI APP Frequency 119.7 MHZ
Type ATIS Name ATIS Frequency 127.4 MHZ
Type CLD Name CLNC DEL Frequency 121.2 MHZ
Type GND Name GND Frequency 121.9 MHZ
Type TWR Name TWR Frequency 118.1 MHZ
Airport Navaids
Type NDB Name Anpu Frequency 250 KHZ
Type VOR-DME Name Anpu Frequency 112500 KHZ
Type NDB Name Lk Frequency 335 KHZ
Type TACAN Name Sungshan Frequency 114500 KHZ
Type NDB Name Lu Frequency 357 KHZ
Type NDB Name O Frequency 295 KHZ
Type NDB Name Sg Frequency 310 KHZ
Type NDB Name Sw Frequency 385 KHZ
Airport Weather Information & NOTAM
ADDS - METARS form results

(1019 UTC 14 August 2020)
Data provider http://aviationweather.gov/metar/data/
 
METAR text: RCSS 141004Z 13003KT 090V200 9000 VCTS -SHRA FEW012 FEW020CB SCT035 BKN150 29/27 Q1008 NOSIG RMK TS SW-W MOV W A2978
Conditions at: RCSS (SUNGSHAN/TAIPEI , TW) observed 1004 UTC 14 August 2020
Temperature: 29.0°C (84°F)
Dewpoint: 27.0°C (81°F) [RH = 89%]
Pressure (altimeter): 29.76 inches Hg (1008.0 mb)
Winds: from the SE (130 degrees) at 3 MPH (3 knots; 1.5 m/s)
Visibility: 6 miles ( 9 km)
Ceiling: 15000 feet AGL
Clouds: few clouds at 1200 feet AGL
few clouds at 2000 feet AGL
scattered clouds at 3500 feet AGL
broken clouds at 15000 feet AGL
Weather: VCTS -SHRA  (thunderstorm in vicinity, light rain showers)

METAR text: RCSS 141000Z 11004KT 9000 -SHRA FEW012 FEW020CB SCT035 BKN150 29/27 Q1008 RETS RESHRA NOSIG RMK CB SW A2977 RA AMT 1.4MM
Conditions at: RCSS (SUNGSHAN/TAIPEI , TW) observed 1000 UTC 14 August 2020
Temperature: 29.0°C (84°F)
Dewpoint: 27.0°C (81°F) [RH = 89%]
Pressure (altimeter): 29.76 inches Hg (1008.0 mb)
Winds: from the ESE (110 degrees) at 5 MPH (4 knots; 2.1 m/s)
Visibility: 6 miles ( 9 km)
Ceiling: 15000 feet AGL
Clouds: few clouds at 1200 feet AGL
few clouds at 2000 feet AGL
scattered clouds at 3500 feet AGL
broken clouds at 15000 feet AGL
Weather: -SHRA SHRA  (light rain showers, rain showers)

METAR text: RCSS 140949Z 12006KT 080V150 9000 -SHRA FEW012 FEW020CB SCT035 BKN050 29/27 Q1008 RETS NOSIG RMK CB SW A2977
Conditions at: RCSS (SUNGSHAN/TAIPEI , TW) observed 0949 UTC 14 August 2020
Temperature: 29.0°C (84°F)
Dewpoint: 27.0°C (81°F) [RH = 89%]
Pressure (altimeter): 29.76 inches Hg (1008.0 mb)
Winds: from the ESE (120 degrees) at 7 MPH (6 knots; 3.1 m/s)
Visibility: 6 miles ( 9 km)
Ceiling: 5000 feet AGL
Clouds: few clouds at 1200 feet AGL
few clouds at 2000 feet AGL
scattered clouds at 3500 feet AGL
broken clouds at 5000 feet AGL
Weather: -SHRA  (light rain showers)

METAR text: RCSS 140941Z 12006KT 090V150 7000 VCTS -SHRA FEW012 FEW020CB SCT035 BKN050 29/26 Q1008 RESHRA NOSIG RMK TS S MOV W A2978
Conditions at: RCSS (SUNGSHAN/TAIPEI , TW) observed 0941 UTC 14 August 2020
Temperature: 29.0°C (84°F)
Dewpoint: 26.0°C (79°F) [RH = 84%]
Pressure (altimeter): 29.76 inches Hg (1008.0 mb)
Winds: from the ESE (120 degrees) at 7 MPH (6 knots; 3.1 m/s)
Visibility: 4 miles ( 7 km)
Ceiling: 5000 feet AGL
Clouds: few clouds at 1200 feet AGL
few clouds at 2000 feet AGL
scattered clouds at 3500 feet AGL
broken clouds at 5000 feet AGL
Weather: VCTS -SHRA  (thunderstorm in vicinity, light rain showers)

METAR text: RCSS 140930Z 10004KT 8000 VCTS SHRA FEW012 FEW020CB BKN035 BKN060 29/26 Q1008 NOSIG RMK TS S STNR A2977
Conditions at: RCSS (SUNGSHAN/TAIPEI , TW) observed 0930 UTC 14 August 2020
Temperature: 29.0°C (84°F)
Dewpoint: 26.0°C (79°F) [RH = 84%]
Pressure (altimeter): 29.76 inches Hg (1008.0 mb)
Winds: from the E (100 degrees) at 5 MPH (4 knots; 2.1 m/s)
Visibility: 5 miles ( 8 km)
Ceiling: 3500 feet AGL
Clouds: few clouds at 1200 feet AGL
few clouds at 2000 feet AGL
broken clouds at 3500 feet AGL
broken clouds at 6000 feet AGL
Weather: VCTS SHRA  (thunderstorm in vicinity, rain showers)

Forecast for: AMD
Text: TAF AMD RCSS 140718Z 1407/1506 09010KT 9999 FEW020 BKN032
Forecast period: 0700 to 1600 UTC 14 August 2020
Forecast type: FROM: standard forecast or significant change
Winds: from the E (90 degrees) at 12 MPH (10 knots; 5.1 m/s)
Visibility: 6 or more miles (10+ km)
Ceiling: 3200 feet AGL
Clouds: few clouds at 2000 feet AGL
broken clouds at 3200 feet AGL
Weather: no significant weather forecast for this period
Text: TEMPO 1407/1410 27010KT 5000 SHRA FEW010 FEW015TCU BKN020 BKN040
Forecast period: 0700 to 1000 UTC 14 August 2020
Forecast type: TEMPORARY: The following changes expected for less than half the time period
Winds: from the W (270 degrees) at 12 MPH (10 knots; 5.1 m/s)
Visibility: 3 miles (5 km)
Ceiling: 2000 feet AGL
Clouds: few clouds at 1000 feet AGL
few clouds at 1500 feet AGL
broken clouds at 2000 feet AGL
Weather: SHRA  (rain showers)
Text: BECMG 1416/1418 09005KT
Forecast period: 1600 UTC 14 August 2020 to 0600 UTC 15 August 2020
Forecast type: BECOMING: Conditions expected to become as follows by 1800 UTC 14 August 2020
Winds: from the E (90 degrees) at 6 MPH (5 knots; 2.6 m/s)
Visibility: 6 or more miles (10+ km)
Ceiling: 3200 feet AGL
Clouds: few clouds at 2000 feet AGL
broken clouds at 3200 feet AGL
Weather: no significant weather forecast for this period